sensor_id;sensor_type;location;lat;lon;timestamp;temperature;humidity
11264;DHT22;5689;48.798;9.070;2023-04-01T00:01:15;8.60;99.90
11264;DHT22;5689;48.798;9.070;2023-04-01T00:03:43;8.50;99.90
11264;DHT22;5689;48.798;9.070;2023-04-01T00:06:14;8.50;99.90
11264;DHT22;5689;48.798;9.070;2023-04-01T00:08:42;8.60;99.90
11264;DHT22;5689;48.798;9.070;2023-04-01T00:11:12;8.60;99.90
11264;DHT22;5689;48.798;9.070;2023-04-01T00:13:42;8.60;99.90
11264;DHT22;5689;48.798;9.070;2023-04-01T00:16:10;8.60;99.90
11264;DHT22;5689;48.798;9.070;2023-04-01T00:18:46;8.70;99.90
11264;DHT22;5689;48.798;9.070;2023-04-01T00:21:15;8.60;99.90
11264;DHT22;5689;48.798;9.070;2023-04-01T00:23:43;8.70;99.90
11264;DHT22;5689;48.798;9.070;2023-04-01T00:26:13;8.60;99.90
11264;DHT22;5689;48.798;9.070;2023-04-01T00:28:41;8.60;99.90
11264;DHT22;5689;48.798;9.070;2023-04-01T00:31:10;8.60;99.90
11264;DHT22;5689;48.798;9.070;2023-04-01T00:33:39;8.60;99.90
11264;DHT22;5689;48.798;9.070;2023-04-01T00:36:09;8.70;99.90
11264;DHT22;5689;48.798;9.070;2023-04-01T00:38:38;8.60;99.90
11264;DHT22;5689;48.798;9.070;2023-04-01T00:41:09;8.60;99.90
11264;DHT22;5689;48.798;9.070;2023-04-01T00:43:50;8.60;99.90
11264;DHT22;5689;48.798;9.070;2023-04-01T00:46:18;8.80;99.90
11264;DHT22;5689;48.798;9.070;2023-04-01T00:48:49;8.70;99.90
11264;DHT22;5689;48.798;9.070;2023-04-01T00:51:21;8.50;99.90
11264;DHT22;5689;48.798;9.070;2023-04-01T00:53:54;8.50;99.90
11264;DHT22;5689;48.798;9.070;2023-04-01T00:56:26;8.40;99.90
11264;DHT22;5689;48.798;9.070;2023-04-01T00:58:59;8.40;99.90
11264;DHT22;5689;48.798;9.070;2023-04-01T01:01:29;8.40;99.90
11264;DHT22;5689;48.798;9.070;2023-04-01T01:03:58;8.40;99.90
11264;DHT22;5689;48.798;9.070;2023-04-01T01:06:46;8.40;99.90
11264;DHT22;5689;48.798;9.070;2023-04-01T01:09:27;8.40;99.90
11264;DHT22;5689;48.798;9.070;2023-04-01T01:12:01;8.40;99.90
11264;DHT22;5689;48.798;9.070;2023-04-01T01:14:46;8.30;99.90
11264;DHT22;5689;48.798;9.070;2023-04-01T01:17:24;8.40;99.90
11264;DHT22;5689;48.798;9.070;2023-04-01T01:20:17;8.40;99.90
11264;DHT22;5689;48.798;9.070;2023-04-01T01:23:19;8.50;99.90
11264;DHT22;5689;48.798;9.070;2023-04-01T01:26:03;8.50;99.90
11264;DHT22;5689;48.798;9.070;2023-04-01T01:28:46;8.60;99.90
11264;DHT22;5689;48.798;9.070;2023-04-01T01:31:22;8.60;99.90
11264;DHT22;5689;48.798;9.070;2023-04-01T01:34:02;8.60;99.90
11264;DHT22;5689;48.798;9.070;2023-04-01T01:36:38;8.70;99.90
11264;DHT22;5689;48.798;9.070;2023-04-01T01:39:09;8.60;99.90
11264;DHT22;5689;48.798;9.070;2023-04-01T01:41:40;8.60;99.90
11264;DHT22;5689;48.798;9.070;2023-04-01T01:44:12;8.50;99.90
11264;DHT22;5689;48.798;9.070;2023-04-01T01:46:42;8.50;99.90
11264;DHT22;5689;48.798;9.070;2023-04-01T01:49:12;8.30;99.90
11264;DHT22;5689;48.798;9.070;2023-04-01T01:51:43;8.20;99.90
11264;DHT22;5689;48.798;9.070;2023-04-01T01:54:13;8.10;99.90
11264;DHT22;5689;48.798;9.070;2023-04-01T01:56:44;8.10;99.90
11264;DHT22;5689;48.798;9.070;2023-04-01T01:59:12;8.10;99.90
11264;DHT22;5689;48.798;9.070;2023-04-01T02:01:46;8.10;99.90
11264;DHT22;5689;48.798;9.070;2023-04-01T02:04:18;8.00;99.90
11264;DHT22;5689;48.798;9.070;2023-04-01T02:06:53;8.00;99.90
11264;DHT22;5689;48.798;9.070;2023-04-01T02:09:23;8.00;99.90
11264;DHT22;5689;48.798;9.070;2023-04-01T02:11:55;8.00;99.90
11264;DHT22;5689;48.798;9.070;2023-04-01T02:14:26;8.00;99.90
11264;DHT22;5689;48.798;9.070;2023-04-01T02:16:57;8.00;99.90
11264;DHT22;5689;48.798;9.070;2023-04-01T02:19:29;8.00;99.90
11264;DHT22;5689;48.798;9.070;2023-04-01T02:22:02;8.00;99.90
11264;DHT22;5689;48.798;9.070;2023-04-01T02:24:35;8.00;99.90
11264;DHT22;5689;48.798;9.070;2023-04-01T02:27:04;8.00;99.90
11264;DHT22;5689;48.798;9.070;2023-04-01T02:29:33;8.00;99.90
11264;DHT22;5689;48.798;9.070;2023-04-01T02:32:02;8.00;99.90
11264;DHT22;5689;48.798;9.070;2023-04-01T02:34:31;8.00;99.90
11264;DHT22;5689;48.798;9.070;2023-04-01T02:37:02;7.90;99.90
11264;DHT22;5689;48.798;9.070;2023-04-01T02:39:30;7.80;99.90
11264;DHT22;5689;48.798;9.070;2023-04-01T02:41:58;7.80;99.90
11264;DHT22;5689;48.798;9.070;2023-04-01T02:44:28;7.80;99.90
11264;DHT22;5689;48.798;9.070;2023-04-01T02:46:57;7.80;99.90
11264;DHT22;5689;48.798;9.070;2023-04-01T02:49:25;7.80;99.90
11264;DHT22;5689;48.798;9.070;2023-04-01T02:51:54;7.80;99.90
11264;DHT22;5689;48.798;9.070;2023-04-01T02:54:23;7.80;99.90
11264;DHT22;5689;48.798;9.070;2023-04-01T02:56:51;7.80;99.90
11264;DHT22;5689;48.798;9.070;2023-04-01T02:59:20;7.80;99.90
11264;DHT22;5689;48.798;9.070;2023-04-01T03:01:48;7.80;99.90
11264;DHT22;5689;48.798;9.070;2023-04-01T03:04:16;7.80;99.90
11264;DHT22;5689;48.798;9.070;2023-04-01T03:06:44;7.80;99.90
11264;DHT22;5689;48.798;9.070;2023-04-01T03:09:13;7.90;99.90
11264;DHT22;5689;48.798;9.070;2023-04-01T03:11:42;7.90;99.90
11264;DHT22;5689;48.798;9.070;2023-04-01T03:14:11;7.90;99.90
11264;DHT22;5689;48.798;9.070;2023-04-01T03:16:40;7.90;99.90
11264;DHT22;5689;48.798;9.070;2023-04-01T03:19:08;7.90;99.90
11264;DHT22;5689;48.798;9.070;2023-04-01T03:21:37;7.90;99.90
11264;DHT22;5689;48.798;9.070;2023-04-01T03:24:05;7.80;99.90
11264;DHT22;5689;48.798;9.070;2023-04-01T03:26:34;7.80;99.90
11264;DHT22;5689;48.798;9.070;2023-04-01T03:29:04;7.90;99.90
11264;DHT22;5689;48.798;9.070;2023-04-01T03:31:32;7.90;99.90
11264;DHT22;5689;48.798;9.070;2023-04-01T03:34:01;7.90;99.90
11264;DHT22;5689;48.798;9.070;2023-04-01T03:36:29;7.90;99.90
11264;DHT22;5689;48.798;9.070;2023-04-01T03:38:57;8.00;99.90
11264;DHT22;5689;48.798;9.070;2023-04-01T03:41:37;8.00;99.90
11264;DHT22;5689;48.798;9.070;2023-04-01T03:44:06;7.90;99.90
11264;DHT22;5689;48.798;9.070;2023-04-01T03:46:35;7.90;99.90
11264;DHT22;5689;48.798;9.070;2023-04-01T03:49:06;7.90;99.90
11264;DHT22;5689;48.798;9.070;2023-04-01T03:51:38;7.90;99.90
11264;DHT22;5689;48.798;9.070;2023-04-01T03:54:07;7.90;99.90
11264;DHT22;5689;48.798;9.070;2023-04-01T03:56:36;7.90;99.90
11264;DHT22;5689;48.798;9.070;2023-04-01T03:59:07;7.90;99.90
11264;DHT22;5689;48.798;9.070;2023-04-01T04:01:35;7.80;99.90
11264;DHT22;5689;48.798;9.070;2023-04-01T04:04:04;7.80;99.90
11264;DHT22;5689;48.798;9.070;2023-04-01T04:06:33;7.80;99.90
11264;DHT22;5689;48.798;9.070;2023-04-01T04:09:02;7.80;99.90
11264;DHT22;5689;48.798;9.070;2023-04-01T04:11:31;7.80;99.90
11264;DHT22;5689;48.798;9.070;2023-04-01T04:14:00;7.90;99.90
11264;DHT22;5689;48.798;9.070;2023-04-01T04:16:30;7.90;99.90
11264;DHT22;5689;48.798;9.070;2023-04-01T04:19:01;7.90;99.90
11264;DHT22;5689;48.798;9.070;2023-04-01T04:21:29;8.00;99.90
11264;DHT22;5689;48.798;9.070;2023-04-01T04:23:59;8.10;99.90
11264;DHT22;5689;48.798;9.070;2023-04-01T04:26:40;7.90;99.90
11264;DHT22;5689;48.798;9.070;2023-04-01T04:29:08;7.80;99.90
11264;DHT22;5689;48.798;9.070;2023-04-01T04:31:38;7.80;99.90
11264;DHT22;5689;48.798;9.070;2023-04-01T04:34:07;7.80;99.90
11264;DHT22;5689;48.798;9.070;2023-04-01T04:36:35;7.80;99.90
11264;DHT22;5689;48.798;9.070;2023-04-01T04:39:04;7.90;99.90
11264;DHT22;5689;48.798;9.070;2023-04-01T04:41:34;7.90;99.90
11264;DHT22;5689;48.798;9.070;2023-04-01T04:44:05;7.80;99.90
11264;DHT22;5689;48.798;9.070;2023-04-01T04:46:33;7.80;99.90
11264;DHT22;5689;48.798;9.070;2023-04-01T04:49:12;7.80;99.90
11264;DHT22;5689;48.798;9.070;2023-04-01T04:51:40;7.80;99.90
11264;DHT22;5689;48.798;9.070;2023-04-01T04:54:09;7.80;99.90
11264;DHT22;5689;48.798;9.070;2023-04-01T04:56:58;7.80;99.90
11264;DHT22;5689;48.798;9.070;2023-04-01T04:59:31;7.80;99.90
11264;DHT22;5689;48.798;9.070;2023-04-01T05:02:07;7.70;99.90
11264;DHT22;5689;48.798;9.070;2023-04-01T05:04:37;7.60;99.90
11264;DHT22;5689;48.798;9.070;2023-04-01T05:07:08;7.70;99.90
11264;DHT22;5689;48.798;9.070;2023-04-01T05:09:36;7.60;99.90
11264;DHT22;5689;48.798;9.070;2023-04-01T05:12:04;7.60;99.90
11264;DHT22;5689;48.798;9.070;2023-04-01T05:14:52;7.50;99.90
11264;DHT22;5689;48.798;9.070;2023-04-01T05:17:20;7.60;99.90
11264;DHT22;5689;48.798;9.070;2023-04-01T05:19:50;7.60;99.90
11264;DHT22;5689;48.798;9.070;2023-04-01T05:22:18;7.60;99.90
11264;DHT22;5689;48.798;9.070;2023-04-01T05:24:47;7.60;99.90
11264;DHT22;5689;48.798;9.070;2023-04-01T05:27:15;7.70;99.90
11264;DHT22;5689;48.798;9.070;2023-04-01T05:29:44;7.90;99.90
11264;DHT22;5689;48.798;9.070;2023-04-01T05:32:34;8.00;99.90
11264;DHT22;5689;48.798;9.070;2023-04-01T05:35:05;8.10;99.90
11264;DHT22;5689;48.798;9.070;2023-04-01T05:37:33;8.20;99.90
11264;DHT22;5689;48.798;9.070;2023-04-01T05:40:03;8.20;99.90
11264;DHT22;5689;48.798;9.070;2023-04-01T05:42:32;8.20;99.90
11264;DHT22;5689;48.798;9.070;2023-04-01T05:45:02;8.30;99.90
11264;DHT22;5689;48.798;9.070;2023-04-01T05:47:59;8.30;99.90
11264;DHT22;5689;48.798;9.070;2023-04-01T05:50:32;8.40;99.90
11264;DHT22;5689;48.798;9.070;2023-04-01T05:53:01;8.50;99.90
11264;DHT22;5689;48.798;9.070;2023-04-01T05:55:29;8.60;99.90
11264;DHT22;5689;48.798;9.070;2023-04-01T05:57:58;8.50;99.90
11264;DHT22;5689;48.798;9.070;2023-04-01T06:00:27;8.70;99.90
11264;DHT22;5689;48.798;9.070;2023-04-01T06:02:58;8.90;99.90
11264;DHT22;5689;48.798;9.070;2023-04-01T06:05:29;8.90;99.90
11264;DHT22;5689;48.798;9.070;2023-04-01T06:08:02;9.00;99.90
11264;DHT22;5689;48.798;9.070;2023-04-01T06:10:42;9.10;99.90
11264;DHT22;5689;48.798;9.070;2023-04-01T06:13:19;9.20;99.90
11264;DHT22;5689;48.798;9.070;2023-04-01T06:15:53;9.80;99.90
11264;DHT22;5689;48.798;9.070;2023-04-01T06:18:40;10.00;99.90
11264;DHT22;5689;48.798;9.070;2023-04-01T06:21:27;9.90;99.90
11264;DHT22;5689;48.798;9.070;2023-04-01T06:24:13;10.00;99.90
11264;DHT22;5689;48.798;9.070;2023-04-01T06:26:48;9.80;99.90
11264;DHT22;5689;48.798;9.070;2023-04-01T06:29:42;9.80;99.90
11264;DHT22;5689;48.798;9.070;2023-04-01T06:32:37;9.60;99.90
11264;DHT22;5689;48.798;9.070;2023-04-01T06:38:21;9.60;99.90
11264;DHT22;5689;48.798;9.070;2023-04-01T06:41:14;9.50;99.90
11264;DHT22;5689;48.798;9.070;2023-04-01T06:43:57;9.40;99.90
11264;DHT22;5689;48.798;9.070;2023-04-01T06:46:58;9.40;99.90
11264;DHT22;5689;48.798;9.070;2023-04-01T06:49:52;9.30;99.90
11264;DHT22;5689;48.798;9.070;2023-04-01T06:52:47;9.40;99.90
11264;DHT22;5689;48.798;9.070;2023-04-01T06:55:40;9.40;99.90
11264;DHT22;5689;48.798;9.070;2023-04-01T06:58:20;9.40;99.90
11264;DHT22;5689;48.798;9.070;2023-04-01T07:00:52;9.40;99.90
11264;DHT22;5689;48.798;9.070;2023-04-01T07:03:26;9.40;99.90
11264;DHT22;5689;48.798;9.070;2023-04-01T07:06:00;9.50;99.90
11264;DHT22;5689;48.798;9.070;2023-04-01T07:08:30;9.40;99.90
11264;DHT22;5689;48.798;9.070;2023-04-01T07:11:03;9.30;99.90
11264;DHT22;5689;48.798;9.070;2023-04-01T07:13:55;9.30;99.90
11264;DHT22;5689;48.798;9.070;2023-04-01T07:16:30;9.40;99.90
11264;DHT22;5689;48.798;9.070;2023-04-01T07:19:02;9.30;99.90
11264;DHT22;5689;48.798;9.070;2023-04-01T07:21:48;9.20;99.90
11264;DHT22;5689;48.798;9.070;2023-04-01T07:24:29;9.20;99.90
11264;DHT22;5689;48.798;9.070;2023-04-01T07:27:08;9.20;99.90
11264;DHT22;5689;48.798;9.070;2023-04-01T07:29:40;9.30;99.90
11264;DHT22;5689;48.798;9.070;2023-04-01T07:32:25;9.30;99.90
11264;DHT22;5689;48.798;9.070;2023-04-01T07:35:17;9.20;99.90
11264;DHT22;5689;48.798;9.070;2023-04-01T07:37:58;9.30;99.90
11264;DHT22;5689;48.798;9.070;2023-04-01T07:40:36;9.30;99.90
11264;DHT22;5689;48.798;9.070;2023-04-01T07:43:29;9.40;99.90
11264;DHT22;5689;48.798;9.070;2023-04-01T07:46:23;9.50;99.90
11264;DHT22;5689;48.798;9.070;2023-04-01T07:49:00;9.40;99.90
11264;DHT22;5689;48.798;9.070;2023-04-01T07:51:35;9.40;99.90
11264;DHT22;5689;48.798;9.070;2023-04-01T07:54:10;9.50;99.90
11264;DHT22;5689;48.798;9.070;2023-04-01T07:56:45;9.80;99.90
11264;DHT22;5689;48.798;9.070;2023-04-01T07:59:30;9.90;99.90
11264;DHT22;5689;48.798;9.070;2023-04-01T08:02:08;9.90;99.90
11264;DHT22;5689;48.798;9.070;2023-04-01T08:04:49;10.00;99.90
11264;DHT22;5689;48.798;9.070;2023-04-01T08:07:23;10.00;99.90
11264;DHT22;5689;48.798;9.070;2023-04-01T08:10:17;10.10;99.90
11264;DHT22;5689;48.798;9.070;2023-04-01T08:13:15;10.00;99.90
11264;DHT22;5689;48.798;9.070;2023-04-01T08:16:09;10.00;99.90
11264;DHT22;5689;48.798;9.070;2023-04-01T08:18:54;9.80;99.90
11264;DHT22;5689;48.798;9.070;2023-04-01T08:21:28;9.80;99.90
11264;DHT22;5689;48.798;9.070;2023-04-01T08:23:58;9.90;99.90
11264;DHT22;5689;48.798;9.070;2023-04-01T08:26:30;9.90;99.90
11264;DHT22;5689;48.798;9.070;2023-04-01T08:29:02;10.00;99.90
11264;DHT22;5689;48.798;9.070;2023-04-01T08:31:35;9.80;99.90
11264;DHT22;5689;48.798;9.070;2023-04-01T08:34:13;9.70;99.90
11264;DHT22;5689;48.798;9.070;2023-04-01T08:36:46;9.40;99.90
11264;DHT22;5689;48.798;9.070;2023-04-01T08:39:19;9.20;99.90
11264;DHT22;5689;48.798;9.070;2023-04-01T08:42:04;9.00;99.90
11264;DHT22;5689;48.798;9.070;2023-04-01T08:45:07;8.80;99.90
11264;DHT22;5689;48.798;9.070;2023-04-01T08:47:58;8.70;99.90
11264;DHT22;5689;48.798;9.070;2023-04-01T08:50:48;8.60;99.90
11264;DHT22;5689;48.798;9.070;2023-04-01T08:53:50;8.50;99.90
11264;DHT22;5689;48.798;9.070;2023-04-01T08:56:33;8.40;99.90
11264;DHT22;5689;48.798;9.070;2023-04-01T08:59:23;8.50;99.90
11264;DHT22;5689;48.798;9.070;2023-04-01T09:02:10;8.60;99.90
11264;DHT22;5689;48.798;9.070;2023-04-01T09:05:07;8.70;99.90
11264;DHT22;5689;48.798;9.070;2023-04-01T09:07:45;8.80;99.90
11264;DHT22;5689;48.798;9.070;2023-04-01T09:10:45;9.00;99.90
11264;DHT22;5689;48.798;9.070;2023-04-01T09:14:01;9.50;99.90
11264;DHT22;5689;48.798;9.070;2023-04-01T09:16:52;10.00;99.90
11264;DHT22;5689;48.798;9.070;2023-04-01T09:19:36;10.10;99.90
11264;DHT22;5689;48.798;9.070;2023-04-01T09:22:44;10.30;99.90
11264;DHT22;5689;48.798;9.070;2023-04-01T09:25:29;10.90;99.90
11264;DHT22;5689;48.798;9.070;2023-04-01T09:28:07;11.10;99.90
11264;DHT22;5689;48.798;9.070;2023-04-01T09:31:15;11.60;99.90
11264;DHT22;5689;48.798;9.070;2023-04-01T09:37:18;10.50;99.90
11264;DHT22;5689;48.798;9.070;2023-04-01T09:40:09;10.00;99.90
11264;DHT22;5689;48.798;9.070;2023-04-01T09:42:49;10.00;99.90
11264;DHT22;5689;48.798;9.070;2023-04-01T09:45:35;10.00;99.90
11264;DHT22;5689;48.798;9.070;2023-04-01T09:48:14;10.00;99.90
11264;DHT22;5689;48.798;9.070;2023-04-01T09:50:52;9.90;99.90
11264;DHT22;5689;48.798;9.070;2023-04-01T09:53:32;10.00;99.90
11264;DHT22;5689;48.798;9.070;2023-04-01T09:56:27;10.10;99.90
11264;DHT22;5689;48.798;9.070;2023-04-01T09:59:33;10.40;99.90
11264;DHT22;5689;48.798;9.070;2023-04-01T10:02:57;10.10;99.90
11264;DHT22;5689;48.798;9.070;2023-04-01T10:09:04;10.20;99.90
11264;DHT22;5689;48.798;9.070;2023-04-01T10:12:12;10.30;99.90
11264;DHT22;5689;48.798;9.070;2023-04-01T10:15:08;10.60;99.90
11264;DHT22;5689;48.798;9.070;2023-04-01T10:21:21;11.10;99.90
11264;DHT22;5689;48.798;9.070;2023-04-01T10:24:05;11.60;99.90
11264;DHT22;5689;48.798;9.070;2023-04-01T10:27:06;11.90;99.90
11264;DHT22;5689;48.798;9.070;2023-04-01T10:30:13;12.10;99.90
11264;DHT22;5689;48.798;9.070;2023-04-01T10:39:28;11.00;99.90
11264;DHT22;5689;48.798;9.070;2023-04-01T10:46:22;11.00;99.90
11264;DHT22;5689;48.798;9.070;2023-04-01T10:55:54;10.90;99.90
11264;DHT22;5689;48.798;9.070;2023-04-01T11:02:44;11.10;99.90
11264;DHT22;5689;48.798;9.070;2023-04-01T11:06:28;11.40;99.90
11264;DHT22;5689;48.798;9.070;2023-04-01T11:09:34;12.30;99.90
11264;DHT22;5689;48.798;9.070;2023-04-01T11:13:00;13.00;99.90
11264;DHT22;5689;48.798;9.070;2023-04-01T11:16:11;12.90;99.90
11264;DHT22;5689;48.798;9.070;2023-04-01T11:19:07;13.40;99.90
11264;DHT22;5689;48.798;9.070;2023-04-01T11:22:08;14.20;99.90
11264;DHT22;5689;48.798;9.070;2023-04-01T11:25:04;14.20;99.90
11264;DHT22;5689;48.798;9.070;2023-04-01T11:28:07;14.10;99.90
11264;DHT22;5689;48.798;9.070;2023-04-01T11:30:53;14.60;99.90
11264;DHT22;5689;48.798;9.070;2023-04-01T11:33:29;14.30;99.90
11264;DHT22;5689;48.798;9.070;2023-04-01T11:36:12;13.70;99.90
11264;DHT22;5689;48.798;9.070;2023-04-01T11:39:00;13.70;99.90
11264;DHT22;5689;48.798;9.070;2023-04-01T11:42:02;14.10;99.90
11264;DHT22;5689;48.798;9.070;2023-04-01T11:45:11;13.30;99.90
11264;DHT22;5689;48.798;9.070;2023-04-01T11:50:49;12.60;99.90
11264;DHT22;5689;48.798;9.070;2023-04-01T11:53:31;12.40;99.90
11264;DHT22;5689;48.798;9.070;2023-04-01T11:56:11;12.20;99.90
11264;DHT22;5689;48.798;9.070;2023-04-01T11:59:03;11.70;99.90
11264;DHT22;5689;48.798;9.070;2023-04-01T12:01:47;11.90;99.90
11264;DHT22;5689;48.798;9.070;2023-04-01T12:04:38;12.00;99.90
11264;DHT22;5689;48.798;9.070;2023-04-01T12:07:24;11.80;99.90
11264;DHT22;5689;48.798;9.070;2023-04-01T12:10:03;11.70;99.90
11264;DHT22;5689;48.798;9.070;2023-04-01T12:12:38;11.50;99.90
11264;DHT22;5689;48.798;9.070;2023-04-01T12:15:22;11.40;99.90
11264;DHT22;5689;48.798;9.070;2023-04-01T12:17:57;10.90;99.90
11264;DHT22;5689;48.798;9.070;2023-04-01T12:20:37;10.80;99.90
11264;DHT22;5689;48.798;9.070;2023-04-01T12:26:23;11.30;99.90
11264;DHT22;5689;48.798;9.070;2023-04-01T12:29:07;11.30;99.90
11264;DHT22;5689;48.798;9.070;2023-04-01T12:31:45;11.50;99.90
11264;DHT22;5689;48.798;9.070;2023-04-01T12:34:39;11.80;99.90
11264;DHT22;5689;48.798;9.070;2023-04-01T12:37:15;12.70;99.90
11264;DHT22;5689;48.798;9.070;2023-04-01T12:40:06;13.00;99.90
11264;DHT22;5689;48.798;9.070;2023-04-01T12:42:57;12.60;99.90
11264;DHT22;5689;48.798;9.070;2023-04-01T12:45:31;12.00;99.90
11264;DHT22;5689;48.798;9.070;2023-04-01T12:48:21;11.80;99.90
11264;DHT22;5689;48.798;9.070;2023-04-01T12:51:13;11.90;99.90
11264;DHT22;5689;48.798;9.070;2023-04-01T12:56:46;12.20;99.90
11264;DHT22;5689;48.798;9.070;2023-04-01T12:59:28;12.10;99.90
11264;DHT22;5689;48.798;9.070;2023-04-01T13:02:03;12.30;99.90
11264;DHT22;5689;48.798;9.070;2023-04-01T13:05:15;11.90;99.90
11264;DHT22;5689;48.798;9.070;2023-04-01T13:07:56;11.60;99.90
11264;DHT22;5689;48.798;9.070;2023-04-01T13:13:37;11.40;99.90
11264;DHT22;5689;48.798;9.070;2023-04-01T13:16:11;11.20;99.90
11264;DHT22;5689;48.798;9.070;2023-04-01T13:18:53;11.40;99.90
11264;DHT22;5689;48.798;9.070;2023-04-01T13:21:30;11.40;99.90
11264;DHT22;5689;48.798;9.070;2023-04-01T13:24:04;11.30;99.90
11264;DHT22;5689;48.798;9.070;2023-04-01T13:26:39;11.50;99.90
11264;DHT22;5689;48.798;9.070;2023-04-01T13:29:14;11.80;99.90
11264;DHT22;5689;48.798;9.070;2023-04-01T13:32:03;12.10;99.90
11264;DHT22;5689;48.798;9.070;2023-04-01T13:34:42;12.00;99.90
11264;DHT22;5689;48.798;9.070;2023-04-01T13:37:31;11.90;99.90
11264;DHT22;5689;48.798;9.070;2023-04-01T13:40:26;12.00;99.90
11264;DHT22;5689;48.798;9.070;2023-04-01T13:42:58;11.90;99.90
11264;DHT22;5689;48.798;9.070;2023-04-01T13:45:34;11.70;99.90
11264;DHT22;5689;48.798;9.070;2023-04-01T13:51:12;11.70;99.90
11264;DHT22;5689;48.798;9.070;2023-04-01T13:56:53;11.60;99.90
11264;DHT22;5689;48.798;9.070;2023-04-01T14:02:47;11.70;99.90
11264;DHT22;5689;48.798;9.070;2023-04-01T14:05:34;11.50;99.90
11264;DHT22;5689;48.798;9.070;2023-04-01T14:08:17;11.50;99.90
11264;DHT22;5689;48.798;9.070;2023-04-01T14:10:53;11.40;99.90
11264;DHT22;5689;48.798;9.070;2023-04-01T14:13:31;11.40;99.90
11264;DHT22;5689;48.798;9.070;2023-04-01T14:16:39;11.50;99.90
11264;DHT22;5689;48.798;9.070;2023-04-01T14:19:21;11.30;99.90
11264;DHT22;5689;48.798;9.070;2023-04-01T14:22:00;11.20;99.90
11264;DHT22;5689;48.798;9.070;2023-04-01T14:24:44;11.10;99.90
11264;DHT22;5689;48.798;9.070;2023-04-01T14:27:30;11.00;99.90
11264;DHT22;5689;48.798;9.070;2023-04-01T14:33:03;11.00;99.90
11264;DHT22;5689;48.798;9.070;2023-04-01T14:35:38;10.80;99.90
11264;DHT22;5689;48.798;9.070;2023-04-01T14:38:27;10.80;99.90
11264;DHT22;5689;48.798;9.070;2023-04-01T14:41:00;11.10;99.90
11264;DHT22;5689;48.798;9.070;2023-04-01T14:47:11;11.60;99.90
11264;DHT22;5689;48.798;9.070;2023-04-01T14:49:44;11.60;99.90
11264;DHT22;5689;48.798;9.070;2023-04-01T14:52:16;11.50;99.90
11264;DHT22;5689;48.798;9.070;2023-04-01T14:54:47;11.60;99.90
11264;DHT22;5689;48.798;9.070;2023-04-01T14:57:23;11.80;99.90
11264;DHT22;5689;48.798;9.070;2023-04-01T14:59:54;11.60;99.90
11264;DHT22;5689;48.798;9.070;2023-04-01T15:02:45;11.40;99.90
11264;DHT22;5689;48.798;9.070;2023-04-01T15:05:24;11.30;99.90
11264;DHT22;5689;48.798;9.070;2023-04-01T15:08:05;11.40;99.90
11264;DHT22;5689;48.798;9.070;2023-04-01T15:13:44;11.10;99.90
11264;DHT22;5689;48.798;9.070;2023-04-01T15:16:23;10.90;99.90
11264;DHT22;5689;48.798;9.070;2023-04-01T15:19:00;11.00;99.90
11264;DHT22;5689;48.798;9.070;2023-04-01T15:21:50;11.10;99.90
11264;DHT22;5689;48.798;9.070;2023-04-01T15:24:25;11.30;99.90
11264;DHT22;5689;48.798;9.070;2023-04-01T15:27:20;11.40;99.90
11264;DHT22;5689;48.798;9.070;2023-04-01T15:30:02;11.40;99.90
11264;DHT22;5689;48.798;9.070;2023-04-01T15:32:43;11.40;99.90
11264;DHT22;5689;48.798;9.070;2023-04-01T15:35:21;11.10;99.90
11264;DHT22;5689;48.798;9.070;2023-04-01T15:37:55;11.20;99.90
11264;DHT22;5689;48.798;9.070;2023-04-01T15:40:29;11.10;99.90
11264;DHT22;5689;48.798;9.070;2023-04-01T15:43:12;11.00;99.90
11264;DHT22;5689;48.798;9.070;2023-04-01T15:45:51;11.10;99.90
11264;DHT22;5689;48.798;9.070;2023-04-01T15:48:33;11.10;99.90
11264;DHT22;5689;48.798;9.070;2023-04-01T15:54:38;11.20;99.90
11264;DHT22;5689;48.798;9.070;2023-04-01T15:57:16;11.10;99.90
11264;DHT22;5689;48.798;9.070;2023-04-01T16:00:11;11.00;99.90
11264;DHT22;5689;48.798;9.070;2023-04-01T16:02:48;11.00;99.90
11264;DHT22;5689;48.798;9.070;2023-04-01T16:05:27;11.00;99.90
11264;DHT22;5689;48.798;9.070;2023-04-01T16:08:12;11.00;99.90
11264;DHT22;5689;48.798;9.070;2023-04-01T16:11:01;11.20;99.90
11264;DHT22;5689;48.798;9.070;2023-04-01T16:13:42;11.00;99.90
11264;DHT22;5689;48.798;9.070;2023-04-01T16:16:23;10.90;99.90
11264;DHT22;5689;48.798;9.070;2023-04-01T16:19:33;11.00;99.90
11264;DHT22;5689;48.798;9.070;2023-04-01T16:22:07;10.90;99.90
11264;DHT22;5689;48.798;9.070;2023-04-01T16:24:42;10.70;99.90
11264;DHT22;5689;48.798;9.070;2023-04-01T16:27:15;10.70;99.90
11264;DHT22;5689;48.798;9.070;2023-04-01T16:29:48;10.70;99.90
11264;DHT22;5689;48.798;9.070;2023-04-01T16:32:27;10.70;99.90
11264;DHT22;5689;48.798;9.070;2023-04-01T16:35:04;10.70;99.90
11264;DHT22;5689;48.798;9.070;2023-04-01T16:37:43;10.80;99.90
11264;DHT22;5689;48.798;9.070;2023-04-01T16:40:24;10.80;99.90
11264;DHT22;5689;48.798;9.070;2023-04-01T16:42:55;10.70;99.90
11264;DHT22;5689;48.798;9.070;2023-04-01T16:45:32;10.80;99.90
11264;DHT22;5689;48.798;9.070;2023-04-01T16:48:10;10.80;99.90
11264;DHT22;5689;48.798;9.070;2023-04-01T16:50:44;10.60;99.90
11264;DHT22;5689;48.798;9.070;2023-04-01T16:53:19;10.70;99.90
11264;DHT22;5689;48.798;9.070;2023-04-01T16:55:54;10.70;99.90
11264;DHT22;5689;48.798;9.070;2023-04-01T16:58:33;10.70;99.90
11264;DHT22;5689;48.798;9.070;2023-04-01T17:01:05;10.90;99.90
11264;DHT22;5689;48.798;9.070;2023-04-01T17:03:39;10.70;99.90
11264;DHT22;5689;48.798;9.070;2023-04-01T17:09:21;10.70;99.90
11264;DHT22;5689;48.798;9.070;2023-04-01T17:11:56;10.70;99.90
11264;DHT22;5689;48.798;9.070;2023-04-01T17:14:29;10.70;99.90
11264;DHT22;5689;48.798;9.070;2023-04-01T17:17:14;10.60;99.90
11264;DHT22;5689;48.798;9.070;2023-04-01T17:20:02;10.60;99.90
11264;DHT22;5689;48.798;9.070;2023-04-01T17:22:39;10.60;99.90
11264;DHT22;5689;48.798;9.070;2023-04-01T17:25:25;10.50;99.90
11264;DHT22;5689;48.798;9.070;2023-04-01T17:27:59;10.50;99.90
11264;DHT22;5689;48.798;9.070;2023-04-01T17:30:34;10.60;99.90
11264;DHT22;5689;48.798;9.070;2023-04-01T17:33:34;10.60;99.90
11264;DHT22;5689;48.798;9.070;2023-04-01T17:36:10;10.70;99.90
11264;DHT22;5689;48.798;9.070;2023-04-01T17:38:53;10.60;99.90
11264;DHT22;5689;48.798;9.070;2023-04-01T17:41:36;10.60;99.90
11264;DHT22;5689;48.798;9.070;2023-04-01T17:44:22;10.50;99.90
11264;DHT22;5689;48.798;9.070;2023-04-01T17:47:19;10.40;99.90
11264;DHT22;5689;48.798;9.070;2023-04-01T17:49:56;10.40;99.90
11264;DHT22;5689;48.798;9.070;2023-04-01T17:52:32;10.20;99.90
11264;DHT22;5689;48.798;9.070;2023-04-01T17:55:29;10.00;99.90
11264;DHT22;5689;48.798;9.070;2023-04-01T17:58:05;9.80;99.90
11264;DHT22;5689;48.798;9.070;2023-04-01T18:00:46;9.70;99.90
11264;DHT22;5689;48.798;9.070;2023-04-01T18:03:25;9.50;99.90
11264;DHT22;5689;48.798;9.070;2023-04-01T18:06:02;9.40;99.90
11264;DHT22;5689;48.798;9.070;2023-04-01T18:08:44;9.30;99.90
11264;DHT22;5689;48.798;9.070;2023-04-01T18:11:24;9.30;99.90
11264;DHT22;5689;48.798;9.070;2023-04-01T18:14:04;9.20;99.90
11264;DHT22;5689;48.798;9.070;2023-04-01T18:17:03;9.10;99.90
11264;DHT22;5689;48.798;9.070;2023-04-01T18:19:42;9.10;99.90
11264;DHT22;5689;48.798;9.070;2023-04-01T18:22:19;9.10;99.90
11264;DHT22;5689;48.798;9.070;2023-04-01T18:24:56;9.10;99.90